createdAt,value
2023-03-11T00:00:34.781Z,1.40
2023-03-11T00:03:02.821Z,1.38
2023-03-11T00:05:32.278Z,1.35
2023-03-11T00:07:59.506Z,1.50
2023-03-11T00:10:30.299Z,1.52
2023-03-11T00:13:00.366Z,1.30
2023-03-11T00:15:28.650Z,1.77
2023-03-11T00:17:55.550Z,1.52
2023-03-11T00:20:27.023Z,1.27
2023-03-11T00:22:54.120Z,1.35
2023-03-11T00:25:22.729Z,1.75
2023-03-11T00:27:49.300Z,1.40
2023-03-11T00:30:17.381Z,1.83
2023-03-11T00:32:43.936Z,1.60
2023-03-11T00:35:17.334Z,1.67
2023-03-11T00:37:46.438Z,1.75
2023-03-11T00:40:15.873Z,1.52
2023-03-11T00:42:42.382Z,1.73
2023-03-11T00:45:10.620Z,1.75
2023-03-11T00:47:37.228Z,1.60
2023-03-11T00:50:04.507Z,1.63
2023-03-11T00:52:31.410Z,1.80
2023-03-11T00:54:59.487Z,1.50
2023-03-11T00:57:29.016Z,2.03
2023-03-11T00:59:56.173Z,1.50
2023-03-11T01:02:24.389Z,1.95
2023-03-11T01:04:57.131Z,1.50
2023-03-11T01:07:23.808Z,1.55
2023-03-11T01:09:50.247Z,1.73
2023-03-11T01:12:16.694Z,2.28
2023-03-11T01:14:43.204Z,1.92
2023-03-11T01:17:09.978Z,2.10
2023-03-11T01:19:36.461Z,2.00
2023-03-11T01:22:02.929Z,1.80
2023-03-11T01:24:29.346Z,1.70
2023-03-11T01:26:56.330Z,2.00
2023-03-11T01:29:24.512Z,2.00
2023-03-11T01:31:50.983Z,2.03
2023-03-11T01:34:17.481Z,2.13
2023-03-11T01:36:43.897Z,1.90
2023-03-11T01:39:10.325Z,1.90
2023-03-11T01:41:36.967Z,2.33
2023-03-11T01:44:05.048Z,2.17
2023-03-11T01:46:59.632Z,1.73
2023-03-11T01:49:30.500Z,1.90
2023-03-11T01:52:02.746Z,2.40
2023-03-11T01:54:35.862Z,2.70
2023-03-11T01:57:06.847Z,2.13
2023-03-11T01:59:38.132Z,2.33
2023-03-11T02:02:11.441Z,2.00
2023-03-11T02:04:38.910Z,2.00
2023-03-11T02:07:08.345Z,2.08
2023-03-11T02:09:41.588Z,2.22
2023-03-11T02:12:10.802Z,2.30
2023-03-11T02:14:41.909Z,2.47
2023-03-11T02:21:23.253Z,2.40
2023-03-11T02:23:59.822Z,2.00
2023-03-11T02:26:50.972Z,2.30
2023-03-11T02:29:19.907Z,2.15
2023-03-11T02:31:48.396Z,2.58
2023-03-11T02:34:24.408Z,2.33
2023-03-11T02:36:51.532Z,2.20
2023-03-11T02:39:39.426Z,2.33
2023-03-11T02:42:15.408Z,2.47
2023-03-11T02:44:45.863Z,2.13
2023-03-11T02:47:12.750Z,2.47
2023-03-11T02:49:39.543Z,2.17
2023-03-11T02:52:06.305Z,2.55
2023-03-11T02:54:33.610Z,2.03
2023-03-11T02:57:00.068Z,2.50
2023-03-11T02:59:27.869Z,2.80
2023-03-11T03:01:55.880Z,2.25
2023-03-11T03:04:22.448Z,2.90
2023-03-11T03:06:49.115Z,2.15
2023-03-11T03:09:16.977Z,2.70
2023-03-11T03:11:44.038Z,2.63
2023-03-11T03:14:10.542Z,2.60
2023-03-11T03:16:37.024Z,1.98
2023-03-11T03:19:04.403Z,2.22
2023-03-11T03:21:30.894Z,2.40
2023-03-11T03:23:57.373Z,2.60
2023-03-11T03:26:23.797Z,2.35
2023-03-11T03:28:51.008Z,2.30
2023-03-11T03:31:17.707Z,2.08
2023-03-11T03:33:44.611Z,3.15
2023-03-11T03:36:14.064Z,2.42
2023-03-11T03:38:44.000Z,2.05
2023-03-11T03:41:14.524Z,2.20
2023-03-11T03:43:41.732Z,2.00
2023-03-11T03:46:08.889Z,1.92
2023-03-11T03:48:40.810Z,2.20
2023-03-11T03:51:13.189Z,2.00
2023-03-11T03:53:46.511Z,2.08
2023-03-11T03:56:16.206Z,1.90
2023-03-11T03:58:44.456Z,2.20
2023-03-11T04:01:11.938Z,1.80
2023-03-11T04:03:39.542Z,1.75
2023-03-11T04:06:24.810Z,1.75
2023-03-11T04:08:57.239Z,1.92
2023-03-11T04:11:28.606Z,2.13
2023-03-11T04:13:55.607Z,1.80
2023-03-11T04:16:24.499Z,1.65
2023-03-11T04:18:55.650Z,2.10
2023-03-11T04:21:22.078Z,1.60
2023-03-11T04:23:48.708Z,1.80
2023-03-11T04:26:17.632Z,1.70
2023-03-11T04:28:44.040Z,1.42
2023-03-11T04:31:12.478Z,1.92
2023-03-11T04:33:39.154Z,1.50
2023-03-11T04:36:09.412Z,1.60
2023-03-11T04:38:37.505Z,1.70
2023-03-11T04:41:07.089Z,1.50
2023-03-11T04:43:35.369Z,1.63
2023-03-11T04:46:01.920Z,1.85
2023-03-11T04:48:28.912Z,1.58
2023-03-11T04:50:55.576Z,1.73
2023-03-11T04:53:23.766Z,2.00
2023-03-11T04:55:51.010Z,1.73
2023-03-11T04:58:17.596Z,1.70
2023-03-11T05:00:46.244Z,2.10
2023-03-11T05:03:14.571Z,1.80
2023-03-11T05:05:41.022Z,2.13
2023-03-11T05:08:07.720Z,1.75
2023-03-11T05:10:34.905Z,1.80
2023-03-11T05:13:04.546Z,1.73
2023-03-11T05:15:34.729Z,1.98
2023-03-11T05:18:03.382Z,2.78
2023-03-11T05:20:31.416Z,2.35
2023-03-11T05:22:58.406Z,2.55
2023-03-11T05:25:26.114Z,2.15
2023-03-11T05:27:52.893Z,2.05
2023-03-11T05:30:19.919Z,2.17
2023-03-11T05:32:48.804Z,1.90
2023-03-11T05:35:15.370Z,1.63
2023-03-11T05:37:41.935Z,1.60
2023-03-11T05:40:11.985Z,1.60
2023-03-11T05:42:40.170Z,2.20
2023-03-11T05:45:08.737Z,1.90
2023-03-11T05:47:36.538Z,1.77
2023-03-11T05:50:04.927Z,1.73
2023-03-11T05:52:32.966Z,1.60
2023-03-11T05:54:59.758Z,1.50
2023-03-11T05:57:28.761Z,1.50
2023-03-11T05:59:56.128Z,2.15
2023-03-11T06:02:23.321Z,1.73
2023-03-11T06:04:49.995Z,1.42
2023-03-11T06:07:16.861Z,2.10
2023-03-11T06:09:46.834Z,1.65
2023-03-11T06:12:17.260Z,1.60
2023-03-11T06:14:55.078Z,1.95
2023-03-11T06:17:21.973Z,2.17
2023-03-11T06:19:48.490Z,1.50
2023-03-11T06:22:15.443Z,2.15
2023-03-11T06:24:41.982Z,1.98
2023-03-11T06:27:11.129Z,1.58
2023-03-11T06:29:40.010Z,1.52
2023-03-11T06:32:06.887Z,1.75
2023-03-11T06:34:33.371Z,1.50
2023-03-11T06:37:00.461Z,1.65
2023-03-11T06:39:26.932Z,1.65
2023-03-11T06:41:54.429Z,2.08
2023-03-11T06:44:20.901Z,1.95
2023-03-11T06:46:47.966Z,1.63
2023-03-11T06:49:15.801Z,1.42
2023-03-11T06:51:42.644Z,1.42
2023-03-11T06:54:10.571Z,1.27
2023-03-11T06:56:37.105Z,1.50
2023-03-11T06:59:06.737Z,1.50
2023-03-11T07:01:34.399Z,2.47
2023-03-11T07:04:03.858Z,1.80
2023-03-11T07:06:31.334Z,1.60
2023-03-11T07:09:08.538Z,1.45
2023-03-11T07:11:38.787Z,1.23
2023-03-11T07:14:09.645Z,1.60
2023-03-11T07:16:39.514Z,1.55
2023-03-11T07:19:12.381Z,1.60
2023-03-11T07:21:39.265Z,1.15
2023-03-11T07:24:06.330Z,1.80
2023-03-11T07:26:35.691Z,1.50
2023-03-11T07:29:02.316Z,1.63
2023-03-11T07:31:34.041Z,1.20
2023-03-11T07:34:03.419Z,1.35
2023-03-11T07:36:30.448Z,1.20
2023-03-11T07:39:01.120Z,1.33
2023-03-11T07:41:29.764Z,1.30
2023-03-11T07:43:58.552Z,1.20
2023-03-11T07:46:26.133Z,1.50
2023-03-11T07:48:52.908Z,1.23
2023-03-11T07:51:22.701Z,0.90
2023-03-11T07:53:49.858Z,1.08
2023-03-11T07:56:17.336Z,1.42
2023-03-11T07:58:45.986Z,1.33
2023-03-11T08:01:20.768Z,1.10
2023-03-11T08:03:50.095Z,1.27
2023-03-11T08:06:23.018Z,1.30
2023-03-11T08:08:50.184Z,1.50
2023-03-11T08:11:17.552Z,1.30
2023-03-11T08:13:45.358Z,1.73
2023-03-11T08:16:17.817Z,1.50
2023-03-11T08:18:44.852Z,1.30
2023-03-11T08:21:13.741Z,1.23
2023-03-11T08:23:40.458Z,1.58
2023-03-11T08:26:12.238Z,1.40
2023-03-11T08:28:38.888Z,1.20
2023-03-11T08:31:19.713Z,1.55
2023-03-11T08:33:49.904Z,1.33
2023-03-11T08:36:19.202Z,1.23
2023-03-11T08:38:45.775Z,1.00
2023-03-11T08:41:12.784Z,1.08
2023-03-11T08:43:39.811Z,1.30
2023-03-11T08:46:06.972Z,1.30
2023-03-11T08:48:34.610Z,1.45
2023-03-11T08:51:01.024Z,1.42
2023-03-11T08:53:27.434Z,1.48
2023-03-11T08:55:53.889Z,1.20
2023-03-11T08:58:20.495Z,1.67
2023-03-11T09:00:47.085Z,1.63
2023-03-11T09:03:13.650Z,1.20
2023-03-11T09:05:40.452Z,1.10
2023-03-11T09:08:06.988Z,1.25
2023-03-11T09:10:33.538Z,1.67
2023-03-11T09:12:59.980Z,1.30
2023-03-11T09:15:26.533Z,1.42
2023-03-11T09:17:53.912Z,1.40
2023-03-11T09:20:20.474Z,1.40
2023-03-11T09:22:47.541Z,1.27
2023-03-11T09:25:14.853Z,1.20
2023-03-11T09:27:41.417Z,1.13
2023-03-11T09:30:09.314Z,1.00
2023-03-11T09:32:35.826Z,1.10
2023-03-11T09:35:02.595Z,0.95
2023-03-11T09:37:30.168Z,2.03
2023-03-11T09:39:56.622Z,2.58
2023-03-11T09:42:37.499Z,1.40
2023-03-11T09:45:15.497Z,1.00
2023-03-11T09:48:00.817Z,1.02
2023-03-11T09:50:42.545Z,1.20
2023-03-11T09:53:30.724Z,1.38
2023-03-11T09:56:03.807Z,1.48
2023-03-11T09:58:59.888Z,1.15
2023-03-11T10:01:30.749Z,1.20
2023-03-11T10:04:02.036Z,1.08
2023-03-11T10:06:29.924Z,0.93
2023-03-11T10:09:36.523Z,1.08
2023-03-11T10:12:06.680Z,1.30
2023-03-11T10:14:51.973Z,1.10
2023-03-11T10:17:59.937Z,1.20
2023-03-11T10:23:25.109Z,1.10
2023-03-11T10:26:03.441Z,0.95
2023-03-11T10:28:37.228Z,1.05
2023-03-11T10:31:20.651Z,1.17
2023-03-11T10:33:54.964Z,1.15
2023-03-11T10:36:28.469Z,1.17
2023-03-11T10:38:56.006Z,1.15
2023-03-11T10:41:50.756Z,1.00
2023-03-11T10:44:33.831Z,1.00
2023-03-11T10:47:01.684Z,1.02
2023-03-11T10:49:29.376Z,1.42
2023-03-11T10:51:57.156Z,1.15
2023-03-11T10:55:00.068Z,1.20
2023-03-11T10:57:28.983Z,1.27
2023-03-11T10:59:57.378Z,1.50
2023-03-11T11:02:26.745Z,1.52
2023-03-11T11:05:17.871Z,1.52
2023-03-11T11:07:46.231Z,1.60
2023-03-11T11:10:19.120Z,2.45
2023-03-11T11:12:57.466Z,1.80
2023-03-11T11:15:36.691Z,2.47
2023-03-11T11:18:23.744Z,2.20
2023-03-11T11:20:57.815Z,2.15
2023-03-11T11:23:27.815Z,1.98
2023-03-11T11:25:59.936Z,2.15
2023-03-11T11:28:26.760Z,2.00
2023-03-11T11:30:56.601Z,2.28
2023-03-11T11:33:24.706Z,2.40
2023-03-11T11:36:03.622Z,2.03
2023-03-11T11:38:32.780Z,2.03
2023-03-11T11:41:03.642Z,2.33
2023-03-11T11:43:44.053Z,2.15
2023-03-11T11:46:33.016Z,2.13
2023-03-11T11:49:27.247Z,1.92
2023-03-11T11:52:00.576Z,1.77
2023-03-11T11:54:41.083Z,2.58
2023-03-11T11:57:13.599Z,1.80
2023-03-11T11:59:40.256Z,1.92
2023-03-11T12:02:21.006Z,2.22
2023-03-11T12:05:06.222Z,1.45
2023-03-11T12:07:35.434Z,1.65
2023-03-11T12:10:27.897Z,1.55
2023-03-11T12:13:33.010Z,1.05
2023-03-11T12:16:38.436Z,1.70
2023-03-11T12:19:10.914Z,1.83
2023-03-11T12:21:48.594Z,1.10
2023-03-11T12:24:47.984Z,1.23
2023-03-11T12:27:33.191Z,1.23
2023-03-11T12:30:11.648Z,1.10
2023-03-11T12:32:43.635Z,1.20
2023-03-11T12:35:19.157Z,1.17
2023-03-11T12:37:45.942Z,1.00
2023-03-11T12:40:49.518Z,0.88
2023-03-11T12:43:47.990Z,0.60
2023-03-11T12:46:19.057Z,1.10
2023-03-11T12:49:12.727Z,0.73
2023-03-11T12:51:40.675Z,1.27
2023-03-11T12:54:30.618Z,0.90
2023-03-11T12:57:19.136Z,1.17
2023-03-11T13:00:02.745Z,0.90
2023-03-11T13:03:13.106Z,1.10
2023-03-11T13:06:00.216Z,1.30
2023-03-11T13:08:28.391Z,1.13
2023-03-11T13:10:56.343Z,1.40
2023-03-11T13:13:35.289Z,1.55
2023-03-11T13:16:30.986Z,0.80
2023-03-11T13:19:26.154Z,1.30
2023-03-11T13:21:54.601Z,1.30
2023-03-11T13:24:21.976Z,1.17
2023-03-11T13:26:52.835Z,1.20
2023-03-11T13:30:03.004Z,1.00
2023-03-11T13:32:35.391Z,1.35
2023-03-11T13:35:26.661Z,1.30
2023-03-11T13:38:18.699Z,1.40
2023-03-11T13:40:46.929Z,1.40
2023-03-11T13:43:18.997Z,1.20
2023-03-11T13:45:57.634Z,1.08
2023-03-11T13:48:31.116Z,1.48
2023-03-11T13:51:06.361Z,1.55
2023-03-11T13:53:39.404Z,1.30
2023-03-11T13:56:06.552Z,1.00
2023-03-11T13:58:33.005Z,1.30
2023-03-11T14:01:01.884Z,0.80
2023-03-11T14:03:33.346Z,1.00
2023-03-11T14:06:08.527Z,0.70
2023-03-11T14:08:36.702Z,1.10
2023-03-11T14:11:04.542Z,1.00
2023-03-11T14:13:33.848Z,0.90
2023-03-11T14:16:08.585Z,0.90
2023-03-11T14:18:37.724Z,0.80
2023-03-11T14:21:06.990Z,0.60
2023-03-11T14:23:41.682Z,0.90
2023-03-11T14:26:30.664Z,1.13
2023-03-11T14:28:59.674Z,1.15
2023-03-11T14:31:36.041Z,1.17
2023-03-11T14:34:17.837Z,0.95
2023-03-11T14:36:45.811Z,1.13
2023-03-11T14:39:25.524Z,0.98
2023-03-11T14:42:18.612Z,0.95
2023-03-11T14:45:01.727Z,1.15
2023-03-11T14:47:41.732Z,0.90
2023-03-11T14:50:16.597Z,1.20
2023-03-11T14:52:48.553Z,1.60
2023-03-11T14:55:22.905Z,1.20
2023-03-11T14:57:54.710Z,1.38
2023-03-11T15:00:25.512Z,0.90
2023-03-11T15:03:03.664Z,1.17
2023-03-11T15:06:16.302Z,1.60
2023-03-11T15:08:48.246Z,1.20
2023-03-11T15:11:15.031Z,1.08
2023-03-11T15:13:44.024Z,1.40
2023-03-11T15:16:31.392Z,1.60
2023-03-11T15:19:00.965Z,1.30
2023-03-11T15:21:28.024Z,1.50
2023-03-11T15:24:06.583Z,1.13
2023-03-11T15:26:35.738Z,1.73
2023-03-11T15:29:12.867Z,1.40
2023-03-11T15:31:40.698Z,1.58
2023-03-11T15:34:16.160Z,1.45
2023-03-11T15:36:56.461Z,1.27
2023-03-11T15:39:45.719Z,1.80
2023-03-11T15:42:17.978Z,1.50
2023-03-11T15:45:08.759Z,2.13
2023-03-11T15:47:36.069Z,1.70
2023-03-11T15:50:23.537Z,1.83
2023-03-11T15:52:53.005Z,1.00
2023-03-11T15:55:19.652Z,1.60
2023-03-11T15:57:47.971Z,1.52
2023-03-11T16:00:18.821Z,1.50
2023-03-11T16:02:45.900Z,1.15
2023-03-11T16:05:17.783Z,1.90
2023-03-11T16:07:44.444Z,1.10
2023-03-11T16:10:11.624Z,1.80
2023-03-11T16:12:39.072Z,1.55
2023-03-11T16:15:07.013Z,1.38
2023-03-11T16:17:48.415Z,1.42
2023-03-11T16:20:16.213Z,1.38
2023-03-11T16:22:42.755Z,1.45
2023-03-11T16:25:22.835Z,1.75
2023-03-11T16:27:54.724Z,1.65
2023-03-11T16:30:22.178Z,1.67
2023-03-11T16:32:49.093Z,1.40
2023-03-11T16:35:16.123Z,1.25
2023-03-11T16:37:43.343Z,1.88
2023-03-11T16:40:13.888Z,1.38
2023-03-11T16:42:40.744Z,1.20
2023-03-11T16:45:07.628Z,1.48
2023-03-11T16:47:34.029Z,1.60
2023-03-11T16:50:00.484Z,1.40
2023-03-11T16:52:27.236Z,1.75
2023-03-11T16:54:53.659Z,1.60
2023-03-11T16:57:20.097Z,1.85
2023-03-11T16:59:46.580Z,1.70
2023-03-11T17:02:13.054Z,1.88
2023-03-11T17:04:39.519Z,1.40
2023-03-11T17:07:07.119Z,1.40
2023-03-11T17:09:35.220Z,1.50
2023-03-11T17:12:02.503Z,1.67
2023-03-11T17:14:29.367Z,1.80
2023-03-11T17:16:55.883Z,2.15
2023-03-11T17:19:23.966Z,1.65
2023-03-11T17:21:51.486Z,1.80
2023-03-11T17:24:17.948Z,1.63
2023-03-11T17:26:44.466Z,1.40
2023-03-11T17:29:10.888Z,2.28
2023-03-11T17:31:37.324Z,2.70
2023-03-11T17:34:03.803Z,3.47
2023-03-11T17:36:30.345Z,2.78
2023-03-11T17:38:56.785Z,3.47
2023-03-11T17:41:23.548Z,2.08
2023-03-11T17:43:51.556Z,1.63
2023-03-11T17:46:20.355Z,1.50
2023-03-11T17:48:48.802Z,1.30
2023-03-11T17:51:21.490Z,2.63
2023-03-11T17:53:48.975Z,2.50
2023-03-11T17:56:18.234Z,2.50
2023-03-11T17:58:44.685Z,2.42
2023-03-11T18:01:14.575Z,2.30
2023-03-11T18:03:41.446Z,2.22
2023-03-11T18:06:08.772Z,3.88
2023-03-11T18:08:36.303Z,2.53
2023-03-11T18:11:06.078Z,3.10
2023-03-11T18:13:33.571Z,2.35
2023-03-11T18:16:03.628Z,2.03
2023-03-11T18:18:31.718Z,2.40
2023-03-11T18:21:06.307Z,2.40
2023-03-11T18:23:33.737Z,3.15
2023-03-11T18:26:01.323Z,2.45
2023-03-11T18:28:28.274Z,2.78
2023-03-11T18:30:54.871Z,3.92
2023-03-11T18:33:23.104Z,5.65
2023-03-11T18:35:49.564Z,7.40
2023-03-11T18:38:16.199Z,3.38
2023-03-11T18:40:42.619Z,3.83
2023-03-11T18:43:13.203Z,2.10
2023-03-11T18:45:39.971Z,2.08
2023-03-11T18:48:06.506Z,1.80
2023-03-11T18:50:32.973Z,1.70
2023-03-11T18:52:59.941Z,1.55
2023-03-11T18:55:26.371Z,2.10
2023-03-11T18:57:53.166Z,2.08
2023-03-11T19:00:23.462Z,1.88
2023-03-11T19:02:51.867Z,1.77
2023-03-11T19:05:18.415Z,1.52
2023-03-11T19:07:44.938Z,1.50
2023-03-11T19:10:12.295Z,1.92
2023-03-11T19:12:39.892Z,1.88
2023-03-11T19:15:07.084Z,1.50
2023-03-11T19:17:33.518Z,2.75
2023-03-11T19:19:59.980Z,2.25
2023-03-11T19:22:26.439Z,6.10
2023-03-11T19:24:53.764Z,11.75
2023-03-11T19:27:20.182Z,5.95
2023-03-11T19:29:46.590Z,4.65
2023-03-11T19:32:13.139Z,5.15
2023-03-11T19:34:39.955Z,3.20
2023-03-11T19:37:06.364Z,2.63
2023-03-11T19:39:32.863Z,1.60
2023-03-11T19:41:59.283Z,1.63
2023-03-11T19:44:25.806Z,1.90
2023-03-11T19:46:52.282Z,1.50
2023-03-11T19:49:18.723Z,2.13
2023-03-11T19:51:50.127Z,2.35
2023-03-11T19:54:18.152Z,2.58
2023-03-11T19:56:45.323Z,3.13
2023-03-11T19:59:12.156Z,2.60
2023-03-11T20:01:38.787Z,2.38
2023-03-11T20:04:05.597Z,2.00
2023-03-11T20:06:32.179Z,2.30
2023-03-11T20:08:58.731Z,2.10
2023-03-11T20:11:25.203Z,1.67
2023-03-11T20:13:51.716Z,1.50
2023-03-11T20:16:19.387Z,1.88
2023-03-11T20:18:49.999Z,1.92
2023-03-11T20:21:16.909Z,2.30
2023-03-11T20:23:43.360Z,1.92
2023-03-11T20:26:12.801Z,2.00
2023-03-11T20:28:39.665Z,3.45
2023-03-11T20:31:16.009Z,3.47
2023-03-11T20:33:42.980Z,3.05
2023-03-11T20:36:13.415Z,5.03
2023-03-11T20:38:40.633Z,12.88
2023-03-11T20:41:08.178Z,5.22
2023-03-11T20:43:38.040Z,4.75
2023-03-11T20:46:05.309Z,3.70
2023-03-11T20:48:32.046Z,2.63
2023-03-11T20:51:03.482Z,2.17
2023-03-11T20:53:31.377Z,2.83
2023-03-11T20:56:06.631Z,2.22
2023-03-11T20:58:33.046Z,2.30
2023-03-11T21:00:59.627Z,2.00
2023-03-11T21:03:26.195Z,2.10
2023-03-11T21:05:52.692Z,2.47
2023-03-11T21:08:19.162Z,2.00
2023-03-11T21:10:45.692Z,2.28
2023-03-11T21:13:12.332Z,2.47
2023-03-11T21:15:38.794Z,2.28
2023-03-11T21:18:06.956Z,2.28
2023-03-11T21:20:33.388Z,2.10
2023-03-11T21:22:59.900Z,2.40
2023-03-11T21:25:28.474Z,2.72
2023-03-11T21:27:54.934Z,1.88
2023-03-11T21:30:21.518Z,2.47
2023-03-11T21:32:48.215Z,2.40
2023-03-11T21:35:14.971Z,2.40
2023-03-11T21:37:41.472Z,2.15
2023-03-11T21:40:08.796Z,2.30
2023-03-11T21:42:35.366Z,2.10
2023-03-11T21:45:01.929Z,2.47
2023-03-11T21:47:28.436Z,2.25
2023-03-11T21:49:55.064Z,1.90
2023-03-11T21:52:21.705Z,2.47
2023-03-11T21:54:48.244Z,2.22
2023-03-11T21:57:14.866Z,2.13
2023-03-11T21:59:41.474Z,2.10
2023-03-11T22:02:14.430Z,2.78
2023-03-11T22:04:42.800Z,2.55
2023-03-11T22:07:09.779Z,2.65
2023-03-11T22:09:36.442Z,2.00
2023-03-11T22:12:04.229Z,2.10
2023-03-11T22:14:30.828Z,2.20
2023-03-11T22:16:57.455Z,2.55
2023-03-11T22:19:24.037Z,2.33
2023-03-11T22:21:50.621Z,2.33
2023-03-11T22:24:17.118Z,2.45
2023-03-11T22:26:44.734Z,2.13
2023-03-11T22:29:13.524Z,2.00
2023-03-11T22:31:40.312Z,2.40
2023-03-11T22:34:06.860Z,2.90
2023-03-11T22:36:33.304Z,2.58
2023-03-11T22:39:01.001Z,2.80
2023-03-11T22:41:30.928Z,2.83
2023-03-11T22:43:57.374Z,2.65
2023-03-11T22:46:23.997Z,2.70
2023-03-11T22:48:50.421Z,2.85
2023-03-11T22:51:17.172Z,2.35
2023-03-11T22:53:43.827Z,2.13
2023-03-11T22:56:13.353Z,1.88
2023-03-11T22:58:40.652Z,2.05
2023-03-11T23:01:07.637Z,2.58
2023-03-11T23:03:35.172Z,1.95
2023-03-11T23:06:04.381Z,2.22
2023-03-11T23:08:31.162Z,2.55
2023-03-11T23:11:02.657Z,2.72
2023-03-11T23:13:30.414Z,3.05
2023-03-11T23:15:56.838Z,3.70
2023-03-11T23:18:23.261Z,2.92
2023-03-11T23:20:49.812Z,2.40
2023-03-11T23:23:16.231Z,2.50
2023-03-11T23:25:42.780Z,2.45
2023-03-11T23:28:09.236Z,2.85
2023-03-11T23:30:35.844Z,2.47
2023-03-11T23:33:02.893Z,2.55
2023-03-11T23:35:30.443Z,2.63
2023-03-11T23:37:57.093Z,2.50
2023-03-11T23:40:23.506Z,2.40
2023-03-11T23:42:50.730Z,2.50
2023-03-11T23:45:17.491Z,2.50
2023-03-11T23:47:43.971Z,2.20
2023-03-11T23:50:10.738Z,2.38
2023-03-11T23:52:37.292Z,2.25
2023-03-11T23:55:04.038Z,2.35
2023-03-11T23:57:30.443Z,2.13
2023-03-11T23:59:56.953Z,2.42
